Airfield :
LOGIN :

Register | Disclaimer

   EN    FR    IT 

 










Legend :    VFR   Marginal VFR   IFR   Intensive IFR   Very Intensive IFR
Visi :
Ceiling :
>= 8 km
>= 3000ft
5 to 8 km
1000 to 3000 ft
1500m to 5 km
500 to 1000 ft
800 to 1500m
200 to 500 ft
< 800m
< 200 ft
Symbols :   Thunderstorms  Fog  Heavy snow  Heavy precipitations  Wind > 20 kt
SIGMETs :     Misc.  Thunderstorms  Icing  Turbulence  Mountain Waves  Volcanic Ashes






- Airport Elevation : 909 ft
- IATA code : KSF


EDVK - Kassel Calden

CURRENT METAR :
  • 291020Z VRB03KT 9999 FEW006 SCT013 10/08 Q1002

EXPIRED METARs :
  • 290950Z 10004KT 040V140 9999 SCT006 SCT011 09/08 Q1002
  • 290920Z 09004KT 060V140 8000 BKN005 08/08 Q1002
  • 290820Z VRB02KT 0400 R27/1000U FG OVC001 06/06 Q1002
  • 290750Z VRB02KT 0200 R27/0550U FG OVC001 06/06 Q1002

TAF TAF EDVK
Valid from the 29 at 09:00 until the 29 at 18:00 UTC


290800Z 2909/2918 20004KT 0700 FG OVC002
BECMG 2909/2910 8000 BKN005
BECMG 2910/2912 SCT010
TEMPO 2913/2918 3000 SHRA BKN020CB



MET'MAP, your aeronautical weather chart ! - Copyright ORBIFLY December 2007 - Disclaimer

ORBIFLY MET'MAP TEAM :

Programming & Development : Alexandra Zaïnal
Original concept : Baudouin d'Aumeries
Technical & hardware support : Manuel Goepfert
Assistance : Marc-Olivier Méhu




SOURCES & CREDITS :

   NOAA